createdAt,value
2018-03-14T00:01:28.126Z,100580.84
2018-03-14T00:03:55.756Z,100579.34
2018-03-14T00:06:23.351Z,100572.94
2018-03-14T00:08:50.983Z,100580.73
2018-03-14T00:11:18.604Z,100580.49
2018-03-14T00:13:46.246Z,100583.39
2018-03-14T00:16:13.869Z,100583.03
2018-03-14T00:18:41.510Z,100577.84
2018-03-14T00:21:09.170Z,100580.67
2018-03-14T00:23:36.854Z,100579.58
2018-03-14T00:26:04.459Z,100582.23
2018-03-14T00:28:32.081Z,100584.72
2018-03-14T00:30:59.678Z,100585.51
2018-03-14T00:33:27.331Z,100584.77
2018-03-14T00:35:54.958Z,100575.17
2018-03-14T00:38:22.772Z,100587.13
2018-03-14T00:40:50.425Z,100583.56
2018-03-14T00:43:18.188Z,100571.30
2018-03-14T00:45:45.795Z,100581.10
2018-03-14T00:48:13.442Z,100591.29
2018-03-14T00:50:41.048Z,100582.48
2018-03-14T00:53:08.677Z,100573.95
2018-03-14T00:55:36.305Z,100581.22
2018-03-14T00:58:03.935Z,100589.61
2018-03-14T01:00:31.538Z,100579.77
2018-03-14T01:02:59.241Z,100581.81
2018-03-14T01:05:26.865Z,100573.66
2018-03-14T01:07:54.698Z,100575.47
2018-03-14T01:10:22.319Z,100584.36
2018-03-14T01:12:49.977Z,100578.30
2018-03-14T01:15:17.739Z,100575.36
2018-03-14T01:17:45.414Z,100582.77
2018-03-14T01:20:13.009Z,100580.72
2018-03-14T01:22:40.698Z,100568.83
2018-03-14T01:25:08.342Z,100570.95
2018-03-14T01:27:35.989Z,100573.61
2018-03-14T01:30:03.573Z,100568.70
2018-03-14T01:32:31.178Z,100567.14
2018-03-14T01:34:58.826Z,100569.23
2018-03-14T01:37:26.420Z,100571.71
2018-03-14T01:39:54.210Z,100573.59
2018-03-14T01:42:21.961Z,100570.15
2018-03-14T01:44:49.689Z,100572.28
2018-03-14T01:47:17.307Z,100565.02
2018-03-14T01:49:44.931Z,100563.34
2018-03-14T01:52:12.530Z,100566.23
2018-03-14T01:54:40.164Z,100562.19
2018-03-14T01:57:07.808Z,100551.26
2018-03-14T01:59:35.427Z,100560.14
2018-03-14T02:02:03.026Z,100553.97
2018-03-14T02:04:30.722Z,100563.39
2018-03-14T02:06:58.326Z,100560.98
2018-03-14T02:09:25.969Z,100562.85
2018-03-14T02:11:53.586Z,100563.27
2018-03-14T02:14:21.241Z,100561.81
2018-03-14T02:16:48.926Z,100560.42
2018-03-14T02:19:16.571Z,100560.23
2018-03-14T02:21:44.166Z,100567.73
2018-03-14T02:24:11.813Z,100558.90
2018-03-14T02:26:39.429Z,100561.08
2018-03-14T02:29:07.079Z,100557.45
2018-03-14T02:31:34.686Z,100561.43
2018-03-14T02:34:02.322Z,100553.11
2018-03-14T02:36:41.922Z,100550.99
2018-03-14T02:39:09.550Z,100552.77
2018-03-14T02:41:37.171Z,100554.92
2018-03-14T02:44:04.874Z,100553.54
2018-03-14T02:46:32.507Z,100551.74
2018-03-14T02:49:00.146Z,100549.84
2018-03-14T02:51:27.765Z,100548.52
2018-03-14T02:53:55.365Z,100551.41
2018-03-14T02:56:23.010Z,100549.55
2018-03-14T02:58:50.619Z,100550.11
2018-03-14T03:01:18.254Z,100548.76
2018-03-14T03:03:45.854Z,100549.55
2018-03-14T03:06:13.474Z,100543.52
2018-03-14T03:08:41.065Z,100542.71
2018-03-14T03:11:08.702Z,100544.36
2018-03-14T03:13:36.388Z,100548.69
2018-03-14T03:16:03.991Z,100547.20
2018-03-14T03:18:31.581Z,100553.83
2018-03-14T03:20:59.207Z,100559.34
2018-03-14T03:23:26.907Z,100559.26
2018-03-14T03:25:54.541Z,100566.34
2018-03-14T03:28:22.143Z,100562.41
2018-03-14T03:30:49.767Z,100562.81
2018-03-14T03:33:17.385Z,100565.85
2018-03-14T03:35:45.006Z,100566.09
2018-03-14T03:38:12.654Z,100565.55
2018-03-14T03:40:40.288Z,100565.74
2018-03-14T03:43:07.866Z,100563.14
2018-03-14T03:45:35.518Z,100562.03
2018-03-14T03:48:03.121Z,100558.83
2018-03-14T03:50:30.896Z,100557.82
2018-03-14T03:52:58.502Z,100556.17
2018-03-14T03:55:26.130Z,100564.41
2018-03-14T03:57:53.746Z,100560.23
2018-03-14T04:00:21.370Z,100556.84
2018-03-14T04:02:49.075Z,100555.09
2018-03-14T04:05:16.702Z,100551.52
2018-03-14T04:07:44.314Z,100560.03
2018-03-14T04:10:11.934Z,100562.81
2018-03-14T04:12:39.538Z,100564.77
2018-03-14T04:15:07.170Z,100559.15
2018-03-14T04:17:34.778Z,100559.22
2018-03-14T04:20:02.406Z,100564.45
2018-03-14T04:22:30.013Z,100559.89
2018-03-14T04:24:57.642Z,100567.19
2018-03-14T04:27:25.255Z,100568.72
2018-03-14T04:29:52.957Z,100571.11
2018-03-14T04:32:20.550Z,100568.72
2018-03-14T04:34:48.338Z,100570.16
2018-03-14T04:37:16.031Z,100578.55
2018-03-14T04:39:43.769Z,100571.11
2018-03-14T04:42:11.436Z,100569.72
2018-03-14T04:44:39.055Z,100566.53
2018-03-14T04:47:06.698Z,100572.94
2018-03-14T04:49:34.318Z,100565.25
2018-03-14T04:52:01.924Z,100566.81
2018-03-14T04:54:29.559Z,100568.70
2018-03-14T04:56:57.154Z,100564.14
2018-03-14T04:59:24.796Z,100569.05
2018-03-14T05:01:52.407Z,100572.67
2018-03-14T05:04:20.026Z,100564.98
2018-03-14T05:06:47.622Z,100574.30
2018-03-14T05:09:15.274Z,100574.61
2018-03-14T05:11:42.922Z,100576.05
2018-03-14T05:14:10.614Z,100575.76
2018-03-14T05:16:38.215Z,100574.84
2018-03-14T05:19:05.838Z,100572.39
2018-03-14T05:21:33.431Z,100571.89
2018-03-14T05:24:01.076Z,100574.73
2018-03-14T05:26:28.681Z,100572.37
2018-03-14T05:28:56.327Z,100570.99
2018-03-14T05:31:23.934Z,100573.23
2018-03-14T05:33:51.571Z,100578.55
2018-03-14T05:36:19.176Z,100574.03
2018-03-14T05:38:46.816Z,100576.13
2018-03-14T05:41:14.496Z,100573.97
2018-03-14T05:43:42.157Z,100574.50
2018-03-14T05:46:09.788Z,100578.01
2018-03-14T05:48:37.420Z,100582.83
2018-03-14T05:51:05.036Z,100578.48
2018-03-14T05:53:32.851Z,100588.44
2018-03-14T05:56:00.446Z,100587.26
2018-03-14T05:58:28.334Z,100588.99
2018-03-14T06:00:55.934Z,100589.55
2018-03-14T06:03:23.718Z,100591.83
2018-03-14T06:05:51.532Z,100592.27
2018-03-14T06:08:19.145Z,100595.09
2018-03-14T06:10:46.783Z,100600.41
2018-03-14T06:13:14.454Z,100604.70
2018-03-14T06:15:42.046Z,100599.44
2018-03-14T06:18:09.698Z,100606.44
2018-03-14T06:20:37.310Z,100609.48
2018-03-14T06:23:05.058Z,100614.72
2018-03-14T06:25:32.694Z,100608.34
2018-03-14T06:28:00.425Z,100612.00
2018-03-14T06:30:28.077Z,100612.07
2018-03-14T06:32:55.703Z,100609.89
2018-03-14T06:35:23.303Z,100609.83
2018-03-14T06:37:50.942Z,100623.13
2018-03-14T06:40:18.570Z,100617.69
2018-03-14T06:42:46.325Z,100614.85
2018-03-14T06:45:13.949Z,100618.06
2018-03-14T06:47:41.570Z,100620.09
2018-03-14T06:50:09.182Z,100623.02
2018-03-14T06:52:36.814Z,100617.94
2018-03-14T06:55:04.998Z,100622.63
2018-03-14T06:57:32.677Z,100626.52
2018-03-14T07:00:12.021Z,100623.92
2018-03-14T07:02:48.986Z,100628.61
2018-03-14T07:05:30.093Z,100637.38
2018-03-14T07:07:57.823Z,100640.29
2018-03-14T07:10:25.423Z,100634.92
2018-03-14T07:12:53.529Z,100637.52
2018-03-14T07:15:21.141Z,100638.58
2018-03-14T07:17:49.255Z,100642.84
2018-03-14T07:20:16.971Z,100636.73
2018-03-14T07:22:44.633Z,100641.13
2018-03-14T07:25:12.225Z,100640.89
2018-03-14T07:27:39.875Z,100639.92
2018-03-14T07:30:07.536Z,100644.65
2018-03-14T07:32:35.198Z,100639.45
2018-03-14T07:35:02.817Z,100644.02
2018-03-14T07:37:30.469Z,100637.64
2018-03-14T07:39:58.077Z,100634.59
2018-03-14T07:42:25.742Z,100637.02
2018-03-14T07:44:53.331Z,100635.27
2018-03-14T07:47:21.018Z,100639.91
2018-03-14T07:49:48.616Z,100645.11
2018-03-14T07:52:16.279Z,100641.13
2018-03-14T07:54:43.871Z,100643.44
2018-03-14T07:57:11.498Z,100644.22
2018-03-14T07:59:39.085Z,100653.03
2018-03-14T08:02:06.711Z,100655.98
2018-03-14T08:04:34.299Z,100654.63
2018-03-14T08:07:01.975Z,100654.48
2018-03-14T08:09:29.567Z,100653.65
2018-03-14T08:11:57.319Z,100656.48
2018-03-14T08:14:24.909Z,100658.05
2018-03-14T08:16:52.540Z,100652.92
2018-03-14T08:19:20.171Z,100652.78
2018-03-14T08:21:47.825Z,100651.41
2018-03-14T08:24:15.418Z,100642.61
2018-03-14T08:26:43.074Z,100649.14
2018-03-14T08:29:10.682Z,100652.15
2018-03-14T08:31:38.301Z,100648.50
2018-03-14T08:34:05.979Z,100648.77
2018-03-14T08:36:33.610Z,100648.50
2018-03-14T08:39:01.218Z,100642.95
2018-03-14T08:41:28.914Z,100646.05
2018-03-14T08:43:56.479Z,100642.49
2018-03-14T08:46:24.102Z,100645.86
2018-03-14T08:48:51.808Z,100651.97
2018-03-14T08:51:19.450Z,100651.05
2018-03-14T08:53:47.042Z,100657.52
2018-03-14T08:56:14.643Z,100660.41
2018-03-14T08:58:42.293Z,100653.57
2018-03-14T09:01:09.936Z,100656.30
2018-03-14T09:03:37.651Z,100654.92
2018-03-14T09:06:05.249Z,100659.74
2018-03-14T09:08:32.885Z,100663.48
2018-03-14T09:11:00.506Z,100670.44
2018-03-14T09:13:28.107Z,100658.71
2018-03-14T09:15:55.731Z,100663.11
2018-03-14T09:18:23.322Z,100669.11
2018-03-14T09:20:50.955Z,100663.92
2018-03-14T09:23:18.559Z,100655.91
2018-03-14T09:25:46.326Z,100659.75
2018-03-14T09:28:13.922Z,100663.78
2018-03-14T09:30:41.558Z,100660.09
2018-03-14T09:33:09.156Z,100661.56
2018-03-14T09:35:36.786Z,100661.68
2018-03-14T09:38:04.386Z,100664.31
2018-03-14T09:40:32.061Z,100668.75
2018-03-14T09:42:59.690Z,100664.81
2018-03-14T09:45:27.311Z,100663.65
2018-03-14T09:47:54.923Z,100663.40
2018-03-14T09:50:22.590Z,100660.52
2018-03-14T09:52:50.175Z,100671.09
2018-03-14T09:55:17.810Z,100668.30
2018-03-14T09:57:45.402Z,100666.29
2018-03-14T10:00:13.214Z,100669.48
2018-03-14T10:02:40.819Z,100668.47
2018-03-14T10:05:08.600Z,100670.11
2018-03-14T10:07:36.195Z,100669.04
2018-03-14T10:10:03.823Z,100667.45
2018-03-14T10:12:31.439Z,100666.49
2018-03-14T10:14:59.075Z,100662.51
2018-03-14T10:17:26.804Z,100660.23
2018-03-14T10:19:54.523Z,100666.34
2018-03-14T10:22:22.123Z,100671.62
2018-03-14T10:24:49.797Z,100671.02
2018-03-14T10:27:17.482Z,100658.87
2018-03-14T10:29:45.138Z,100648.67
2018-03-14T10:32:12.731Z,100649.72
2018-03-14T10:34:40.367Z,100651.59
2018-03-14T10:37:07.966Z,100653.89
2018-03-14T10:39:35.594Z,100660.75
2018-03-14T10:42:03.225Z,100647.97
2018-03-14T10:44:30.842Z,100647.04
2018-03-14T10:46:58.602Z,100644.51
2018-03-14T10:49:26.206Z,100644.39
2018-03-14T10:51:53.847Z,100641.66
2018-03-14T10:54:21.579Z,100639.19
2018-03-14T10:56:49.174Z,100632.36
2018-03-14T10:59:16.903Z,100625.24
2018-03-14T11:01:47.447Z,100625.92
2018-03-14T11:04:15.075Z,100615.66
2018-03-14T11:06:42.722Z,100617.73
2018-03-14T11:09:10.358Z,100624.69
2018-03-14T11:11:37.990Z,100624.41
2018-03-14T11:14:05.610Z,100619.14
2018-03-14T11:16:33.237Z,100614.91
2018-03-14T11:19:00.850Z,100612.02
2018-03-14T11:21:28.588Z,100605.91
2018-03-14T11:23:56.170Z,100613.77
2018-03-14T11:26:23.845Z,100618.31
2018-03-14T11:28:51.442Z,100610.36
2018-03-14T11:31:19.084Z,100610.02
2018-03-14T11:33:46.858Z,100602.86
2018-03-14T11:36:14.508Z,100604.55
2018-03-14T11:38:42.102Z,100594.34
2018-03-14T11:41:09.722Z,100585.39
2018-03-14T11:43:37.328Z,100587.11
2018-03-14T11:46:04.958Z,100580.81
2018-03-14T11:48:32.559Z,100577.64
2018-03-14T11:51:00.204Z,100581.20
2018-03-14T11:53:27.806Z,100566.94
2018-03-14T11:55:55.423Z,100564.68
2018-03-14T11:58:23.039Z,100564.55
2018-03-14T12:00:50.803Z,100556.53
2018-03-14T12:03:18.399Z,100554.48
2018-03-14T12:05:46.143Z,100539.61
2018-03-14T12:08:13.740Z,100535.67
2018-03-14T12:10:41.478Z,100529.46
2018-03-14T12:13:09.098Z,100529.37
2018-03-14T12:15:36.699Z,100523.30
2018-03-14T12:18:04.324Z,100516.48
2018-03-14T12:20:31.910Z,100508.58
2018-03-14T12:22:59.542Z,100500.59
2018-03-14T12:25:27.138Z,100500.03
2018-03-14T12:27:54.787Z,100503.95
2018-03-14T12:30:22.386Z,100488.02
2018-03-14T12:32:50.010Z,100485.67
2018-03-14T12:35:17.608Z,100484.23
2018-03-14T12:37:45.237Z,100478.84
2018-03-14T12:40:12.894Z,100470.53
2018-03-14T12:42:40.517Z,100466.09
2018-03-14T12:45:08.126Z,100451.75
2018-03-14T12:47:35.835Z,100447.70
2018-03-14T12:50:03.408Z,100434.88
2018-03-14T12:52:31.081Z,100438.61
2018-03-14T12:54:58.682Z,100434.55
2018-03-14T12:57:26.474Z,100429.19
2018-03-14T12:59:54.179Z,100423.02
2018-03-14T13:02:21.903Z,100415.27
2018-03-14T13:04:49.514Z,100408.13
2018-03-14T13:07:17.142Z,100397.66
2018-03-14T13:09:44.743Z,100397.55
2018-03-14T13:12:12.372Z,100391.17
2018-03-14T13:14:39.984Z,100382.63
2018-03-14T13:17:07.610Z,100374.77
2018-03-14T13:19:35.214Z,100371.19
2018-03-14T13:22:02.848Z,100375.53
2018-03-14T13:24:30.562Z,100362.58
2018-03-14T13:26:58.182Z,100367.91
2018-03-14T13:29:25.886Z,100359.70
2018-03-14T13:31:53.546Z,100362.67
2018-03-14T13:34:21.143Z,100363.34
2018-03-14T13:36:48.838Z,100351.93
2018-03-14T13:39:16.438Z,100344.12
2018-03-14T13:41:44.071Z,100342.48
2018-03-14T13:44:11.703Z,100337.61
2018-03-14T13:46:39.362Z,100326.56
2018-03-14T13:49:06.967Z,100325.23
2018-03-14T13:51:34.674Z,100316.34
2018-03-14T13:54:02.306Z,100309.02
2018-03-14T13:56:29.914Z,100299.56
2018-03-14T13:58:57.718Z,100299.69
2018-03-14T14:01:25.339Z,100297.63
2018-03-14T14:03:52.947Z,100304.28
2018-03-14T14:06:20.534Z,100294.70
2018-03-14T14:08:48.192Z,100298.18
2018-03-14T14:11:15.787Z,100297.33
2018-03-14T14:13:43.410Z,100295.53
2018-03-14T14:16:11.020Z,100292.00
2018-03-14T14:18:38.663Z,100284.25
2018-03-14T14:21:06.253Z,100287.41
2018-03-14T14:23:33.944Z,100282.55
2018-03-14T14:26:01.564Z,100284.41
2018-03-14T14:28:29.207Z,100284.14
2018-03-14T14:30:56.806Z,100277.97
2018-03-14T14:33:24.438Z,100271.80
2018-03-14T14:35:52.035Z,100269.22
2018-03-14T14:38:19.667Z,100264.77
2018-03-14T14:40:47.263Z,100276.77
2018-03-14T14:43:14.928Z,100263.19
2018-03-14T14:45:42.528Z,100265.46
2018-03-14T14:48:10.150Z,100254.44
2018-03-14T14:50:37.756Z,100253.84
2018-03-14T14:53:05.461Z,100251.38
2018-03-14T14:55:33.050Z,100250.56
2018-03-14T14:58:00.686Z,100246.89
2018-03-14T15:00:28.269Z,100240.78
2018-03-14T15:02:55.911Z,100244.80
2018-03-14T15:05:23.516Z,100239.67
2018-03-14T15:07:51.135Z,100236.57
2018-03-14T15:10:18.875Z,100236.61
2018-03-14T15:12:46.615Z,100234.55
2018-03-14T15:15:14.213Z,100223.52
2018-03-14T15:17:41.825Z,100223.45
2018-03-14T15:20:09.439Z,100219.40
2018-03-14T15:22:37.102Z,100215.34
2018-03-14T15:25:04.699Z,100212.31
2018-03-14T15:27:32.294Z,100208.81
2018-03-14T15:29:59.912Z,100202.61
2018-03-14T15:32:27.542Z,100206.42
2018-03-14T15:34:55.162Z,100198.47
2018-03-14T15:37:22.807Z,100194.02
2018-03-14T15:39:50.394Z,100189.03
2018-03-14T15:42:18.027Z,100182.92
2018-03-14T15:44:45.640Z,100182.76
2018-03-14T15:47:13.275Z,100188.33
2018-03-14T15:49:40.881Z,100185.59
2018-03-14T15:52:08.558Z,100181.92
2018-03-14T15:54:36.163Z,100176.98
2018-03-14T15:57:04.064Z,100182.59
2018-03-14T15:59:31.642Z,100182.87
2018-03-14T16:01:59.371Z,100182.77
2018-03-14T16:04:26.976Z,100177.59
2018-03-14T16:06:54.575Z,100178.01
2018-03-14T16:09:22.203Z,100181.09
2018-03-14T16:11:49.821Z,100180.38
2018-03-14T16:14:17.457Z,100182.65
2018-03-14T16:16:45.047Z,100177.25
2018-03-14T16:19:12.680Z,100170.75
2018-03-14T16:21:40.294Z,100176.22
2018-03-14T16:24:07.928Z,100179.96
2018-03-14T16:26:35.570Z,100174.33
2018-03-14T16:29:03.282Z,100177.31
2018-03-14T16:31:30.873Z,100176.62
2018-03-14T16:33:58.490Z,100174.76
2018-03-14T16:36:26.086Z,100173.41
2018-03-14T16:38:53.720Z,100171.42
2018-03-14T16:41:21.359Z,100174.56
2018-03-14T16:43:48.982Z,100164.42
2018-03-14T16:46:16.572Z,100166.48
2018-03-14T16:48:44.203Z,100163.31
2018-03-14T16:51:11.798Z,100166.35
2018-03-14T16:53:39.417Z,100157.21
2018-03-14T16:56:07.061Z,100161.06
2018-03-14T16:58:34.694Z,100162.67
2018-03-14T17:01:02.287Z,100161.19
2018-03-14T17:03:29.909Z,100150.40
2018-03-14T17:05:57.534Z,100153.70
2018-03-14T17:08:25.148Z,100155.38
2018-03-14T17:10:52.770Z,100151.16
2018-03-14T17:13:20.386Z,100149.57
2018-03-14T17:15:48.142Z,100143.13
2018-03-14T17:18:17.671Z,100140.33
2018-03-14T17:20:45.259Z,100140.20
2018-03-14T17:23:12.927Z,100142.50
2018-03-14T17:25:41.318Z,100137.98
2018-03-14T17:28:08.952Z,100135.50
2018-03-14T17:30:36.631Z,100139.54
2018-03-14T17:33:06.169Z,100129.64
2018-03-14T17:35:33.766Z,100130.52
2018-03-14T17:38:01.429Z,100126.01
2018-03-14T17:40:29.039Z,100126.91
2018-03-14T17:42:59.635Z,100125.48
2018-03-14T17:45:27.246Z,100120.16
2018-03-14T17:48:01.730Z,100123.92
2018-03-14T17:50:29.321Z,100118.70
2018-03-14T17:52:56.941Z,100114.98
2018-03-14T17:55:24.838Z,100113.80
2018-03-14T17:57:52.503Z,100108.22
2018-03-14T18:00:20.126Z,100111.64
2018-03-14T18:02:47.827Z,100107.86
2018-03-14T18:05:15.435Z,100107.52
2018-03-14T18:07:43.055Z,100099.80
2018-03-14T18:10:10.671Z,100090.38
2018-03-14T18:12:38.301Z,100092.45
2018-03-14T18:15:05.893Z,100078.16
2018-03-14T18:17:33.531Z,100078.73
2018-03-14T18:20:01.121Z,100069.67
2018-03-14T18:22:31.951Z,100078.86
2018-03-14T18:24:59.561Z,100071.89
2018-03-14T18:27:27.473Z,100069.38
2018-03-14T18:29:55.027Z,100068.09
2018-03-14T18:32:22.830Z,100066.21
2018-03-14T18:34:51.716Z,100058.58
2018-03-14T18:37:19.884Z,100055.92
2018-03-14T18:39:47.538Z,100056.22
2018-03-14T18:42:15.202Z,100048.06
2018-03-14T18:44:42.795Z,100040.47
2018-03-14T18:47:10.431Z,100034.33
2018-03-14T18:49:38.024Z,100037.28
2018-03-14T18:52:07.168Z,100037.30
2018-03-14T18:54:34.769Z,100033.06
2018-03-14T18:57:02.453Z,100024.08
2018-03-14T18:59:30.078Z,100013.16
2018-03-14T19:01:57.708Z,100007.16
2018-03-14T19:04:25.320Z,100005.83
2018-03-14T19:06:52.931Z,100012.75
2018-03-14T19:09:20.534Z,100023.22
2018-03-14T19:11:48.159Z,100022.44
2018-03-14T19:14:15.763Z,100009.58
2018-03-14T19:16:44.304Z,99999.85
2018-03-14T19:19:11.963Z,100007.33
2018-03-14T19:21:39.633Z,100007.88
2018-03-14T19:24:07.253Z,100004.84
2018-03-14T19:26:34.914Z,100006.45
2018-03-14T19:29:02.505Z,100003.09
2018-03-14T19:31:30.178Z,99997.61
2018-03-14T19:33:57.794Z,99995.87
2018-03-14T19:36:25.436Z,99997.48
2018-03-14T19:38:53.220Z,99997.62
2018-03-14T19:41:20.802Z,99993.48
2018-03-14T19:43:48.448Z,99993.34
2018-03-14T19:46:16.076Z,99988.27
2018-03-14T19:48:43.684Z,99986.15
2018-03-14T19:51:11.298Z,99982.52
2018-03-14T19:53:38.901Z,99984.53
2018-03-14T19:56:06.608Z,99984.53
2018-03-14T19:58:34.224Z,99988.13
2018-03-14T20:01:04.267Z,99986.28
2018-03-14T20:03:31.888Z,99985.63
2018-03-14T20:05:59.530Z,99977.75
2018-03-14T20:08:27.143Z,99966.93
2018-03-14T20:10:54.772Z,99959.70
2018-03-14T20:13:22.527Z,99959.88
2018-03-14T20:15:50.261Z,99952.23
2018-03-14T20:18:19.630Z,99950.94
2018-03-14T20:20:47.244Z,99952.12
2018-03-14T20:23:14.866Z,99943.33
2018-03-14T20:25:42.522Z,99939.97
2018-03-14T20:28:10.491Z,99946.13
2018-03-14T20:30:38.173Z,99946.51
2018-03-14T20:33:05.867Z,99936.10
2018-03-14T20:35:33.564Z,99929.97
2018-03-14T20:38:01.212Z,99942.38
2018-03-14T20:40:28.857Z,99941.97
2018-03-14T20:42:56.442Z,99939.04
2018-03-14T20:45:24.058Z,99933.44
2018-03-14T20:47:51.666Z,99922.23
2018-03-14T20:50:19.291Z,99923.44
2018-03-14T20:52:47.337Z,99926.64
2018-03-14T20:55:15.600Z,99927.69
2018-03-14T20:57:43.203Z,99925.69
2018-03-14T21:00:10.871Z,99920.48
2018-03-14T21:02:38.485Z,99920.59
2018-03-14T21:05:06.114Z,99913.69
2018-03-14T21:07:33.810Z,99913.29
2018-03-14T21:10:01.458Z,99907.67
2018-03-14T21:12:29.056Z,99907.01
2018-03-14T21:14:56.687Z,99901.81
2018-03-14T21:17:24.347Z,99904.06
2018-03-14T21:19:52.022Z,99899.66
2018-03-14T21:22:19.597Z,99896.31
2018-03-14T21:24:47.215Z,99889.64
2018-03-14T21:27:14.807Z,99888.70
2018-03-14T21:29:42.543Z,99884.20
2018-03-14T21:32:10.139Z,99881.25
2018-03-14T21:34:37.774Z,99877.65
2018-03-14T21:37:05.369Z,99872.59
2018-03-14T21:39:33.010Z,99872.45
2018-03-14T21:42:00.717Z,99870.16
2018-03-14T21:44:28.339Z,99860.95
2018-03-14T21:46:56.729Z,99858.67
2018-03-14T21:49:27.881Z,99861.09
2018-03-14T21:51:55.482Z,99850.15
2018-03-14T21:54:23.118Z,99850.00
2018-03-14T21:56:50.704Z,99855.61
2018-03-14T21:59:18.311Z,99847.50
2018-03-14T22:01:46.060Z,99843.08
2018-03-14T22:04:13.644Z,99840.83
2018-03-14T22:06:41.289Z,99837.75
2018-03-14T22:09:08.903Z,99833.06
2018-03-14T22:11:36.638Z,99833.08
2018-03-14T22:14:04.169Z,99842.42
2018-03-14T22:16:31.799Z,99842.13
2018-03-14T22:18:59.574Z,99840.95
2018-03-14T22:21:27.191Z,99834.16
2018-03-14T22:23:54.787Z,99819.86
2018-03-14T22:26:22.399Z,99812.41
2018-03-14T22:28:50.003Z,99815.56
2018-03-14T22:31:17.658Z,99819.81
2018-03-14T22:33:45.374Z,99821.81
2018-03-14T22:36:13.019Z,99819.02
2018-03-14T22:38:40.594Z,99824.74
2018-03-14T22:41:08.900Z,99823.15
2018-03-14T22:43:36.609Z,99816.08
2018-03-14T22:46:04.247Z,99816.75
2018-03-14T22:48:32.028Z,99812.18
2018-03-14T22:50:59.804Z,99814.19
2018-03-14T22:53:27.412Z,99814.17
2018-03-14T22:55:55.066Z,99811.65
2018-03-14T22:58:22.662Z,99814.18
2018-03-14T23:00:50.304Z,99807.63
2018-03-14T23:03:17.917Z,99802.84
2018-03-14T23:05:45.556Z,99800.17
2018-03-14T23:08:13.124Z,99792.30
2018-03-14T23:10:40.751Z,99788.13
2018-03-14T23:13:08.353Z,99780.67
2018-03-14T23:15:36.004Z,99781.47
2018-03-14T23:18:03.595Z,99779.08
2018-03-14T23:20:31.242Z,99766.70
2018-03-14T23:22:58.851Z,99768.95
2018-03-14T23:25:26.528Z,99760.03
2018-03-14T23:27:54.111Z,99763.23
2018-03-14T23:30:21.751Z,99758.19
2018-03-14T23:32:49.368Z,99756.97
2018-03-14T23:35:17.015Z,99743.80
2018-03-14T23:37:44.627Z,99739.63
2018-03-14T23:40:12.246Z,99732.86
2018-03-14T23:42:39.838Z,99729.69
2018-03-14T23:45:07.614Z,99728.88
2018-03-14T23:47:35.204Z,99720.89
2018-03-14T23:50:02.834Z,99720.45
2018-03-14T23:52:30.464Z,99713.27
2018-03-14T23:54:58.088Z,99710.84
2018-03-14T23:57:25.672Z,99708.03
2018-03-14T23:59:53.290Z,99705.78
